Date,TemperatureHighF,TemperatureAvgF,TemperatureLowF,DewpointHighF,DewpointAvgF,DewpointLowF,HumidityHigh,HumidityAvg,HumidityLow,PressureMaxIn,PressureMinIn,WindSpeedMaxMPH,WindSpeedAvgMPH,GustSpeedMaxMPH,PrecipitationSumIn
2012-1-1,61.9,42.1,30.0,51.0,36.3,28.0,98,81,57,30.07,29.70,21,2,21,0.04
2012-1-2,35.2,29.1,22.1,28.6,22.2,18.6,93,76,58,30.07,29.93,17,3,17,0.00
2012-1-3,25.0,21.3,14.2,19.5,15.1,9.2,91,78,55,30.30,30.07,18,2,18,0.02
2012-1-4,41.5,24.8,10.0,28.9,17.9,8.2,96,79,36,30.27,29.99,11,0,11,0.00
2012-1-5,50.5,35.8,25.5,33.2,28.1,23.9,96,75,47,30.09,29.96,8,0,8,0.02
2012-1-6,66.7,39.5,24.1,39.8,29.9,23.3,97,75,32,29.98,29.82,10,0,10,0.00
2012-1-7,62.6,40.6,27.3,54.7,35.1,25.7,97,84,43,30.12,29.83,10,0,10,0.06
2012-1-8,53.8,33.6,21.6,38.4,28.4,20.9,97,84,49,30.29,30.12,7,0,7,0.00
2012-1-9,46.6,35.2,26.4,41.3,33.0,25.4,98,92,81,30.23,30.01,1,0,1,0.00
2012-1-10,56.5,34.3,21.9,42.0,29.4,21.4,98,85,47,30.10,29.95,6,0,6,0.00
2012-1-11,52.3,38.1,25.0,48.9,37.2,23.8,98,97,88,29.95,29.43,3,0,3,0.16
2012-1-12,52.2,45.4,30.4,48.6,44.0,27.3,98,95,88,29.60,29.37,17,1,17,0.19
2012-1-13,30.4,23.3,19.6,27.3,18.6,15.5,91,82,72,30.06,29.60,19,3,19,0.00
2012-1-14,34.9,26.2,21.7,24.0,20.9,18.3,93,81,62,30.14,30.04,7,0,7,0.00
2012-1-15,40.8,24.9,16.2,24.6,19.7,14.7,95,82,50,30.45,30.13,4,0,4,0.00
2012-1-16,58.3,35.2,12.9,40.5,26.2,11.4,95,74,33,30.39,30.01,8,0,8,0.04
2012-1-17,63.3,50.1,41.5,54.2,46.0,33.4,98,86,70,30.01,29.66,14,1,14,0.53
2012-1-18,41.4,31.9,22.5,33.5,23.6,18.4,86,71,57,30.18,29.95,14,1,14,0.00
2012-1-19,44.6,33.0,16.9,32.4,19.9,15.6,95,64,36,30.12,29.86,12,1,12,0.00
2012-1-20,42.6,34.6,29.5,31.7,28.0,23.9,93,77,58,30.17,29.87,6,0,6,0.04
2012-1-21,44.8,34.2,31.1,44.3,33.3,30.2,98,97,94,30.19,29.71,5,0,14,0.16
2012-1-22,59.5,41.4,31.1,47.0,35.7,29.9,98,82,53,30.18,29.99,7,0,7,0.00
2012-1-23,69.1,56.4,39.4,53.6,47.3,37.2,94,73,56,29.99,29.68,13,1,13,0.08
2012-1-24,58.5,46.2,31.8,40.2,36.6,29.4,92,70,48,30.30,29.94,10,1,10,0.00
2012-1-25,57.9,40.1,26.8,41.7,34.2,25.5,97,81,51,30.32,30.07,5,0,5,0.00
2012-1-26,63.7,48.1,41.5,58.2,46.9,38.8,98,96,80,30.09,29.48,7,0,7,0.31
2012-1-27,65.1,46.1,35.8,57.6,43.6,34.4,97,91,75,30.06,29.39,14,2,14,0.41
2012-1-28,48.6,38.2,26.6,47.2,31.6,19.0,98,79,43,30.23,29.94,10,1,10,0.00
2012-1-29,51.6,34.9,19.4,32.9,22.0,17.9,96,64,34,30.26,30.01,15,2,15,0.00
2012-1-30,58.8,36.6,19.6,31.9,24.3,17.2,93,65,34,30.34,30.14,7,0,7,0.00
2012-1-31,70.3,46.3,27.5,42.3,32.0,26.2,97,66,26,30.23,30.05,16,1,16,0.00
2012-2-1,59.5,50.9,44.4,53.8,47.0,35.1,98,87,48,30.12,29.98,9,0,9,0.12
2012-2-2,58.1,46.9,30.4,48.8,41.3,29.3,98,83,51,30.36,29.94,10,1,10,0.65
2012-2-3,61.7,38.5,28.8,42.8,31.4,27.6,98,80,36,30.47,30.25,6,0,6,0.00
2012-2-4,45.7,36.9,28.2,38.3,34.7,27.1,98,92,70,30.26,30.00,3,0,3,0.12
2012-2-5,51.3,38.1,27.7,40.3,35.2,26.9,98,90,57,30.22,29.98,6,0,6,0.04
2012-2-6,57.4,38.2,26.4,41.2,32.3,25.9,98,81,47,30.22,30.07,7,0,7,0.00
2012-2-7,60.4,38.4,24.4,43.2,31.2,23.6,98,79,41,30.20,30.11,6,0,6,0.00
2012-2-8,43.7,32.8,27.1,39.5,31.5,26.1,98,95,83,30.23,30.13,3,0,5,0.19
2012-2-9,37.0,32.0,25.2,30.0,26.6,23.6,94,81,63,30.30,30.19,4,0,4,0.00
2012-2-10,39.4,32.5,27.7,32.2,29.9,26.1,97,91,70,30.17,29.90,0,0,0,0.02
2012-2-11,32.2,18.4,13.8,31.7,13.4,6.1,98,81,70,30.21,29.78,11,2,11,0.00
2012-2-12,34.9,20.7,13.8,18.1,12.9,8.0,93,73,49,30.26,30.15,11,1,11,0.04
2012-2-13,46.9,27.2,8.8,30.5,19.1,7.1,94,75,44,30.26,30.02,5,0,5,0.04
2012-2-14,52.9,38.6,29.5,39.9,33.6,26.3,96,83,52,30.06,29.87,10,0,10,0.02
2012-2-15,60.6,43.5,36.3,40.4,36.2,32.5,95,77,45,30.27,30.06,8,0,8,0.02
2012-2-16,51.6,46.8,40.1,50.3,45.2,39.2,98,95,77,30.09,29.94,7,0,7,0.18
2012-2-17,55.2,42.6,26.8,45.6,34.6,25.2,96,76,43,30.15,30.04,11,1,11,0.00
2012-2-18,59.0,41.2,22.8,41.9,29.6,22.0,97,68,38,30.10,29.94,11,1,11,0.00
2012-2-19,51.1,38.9,33.1,33.1,27.0,24.0,69,62,50,30.04,29.83,6,0,6,0.00
2012-2-20,57.4,36.1,21.7,31.7,24.8,18.7,91,66,35,30.31,30.02,4,0,4,0.00
2012-2-21,57.9,39.7,21.4,40.4,30.5,19.6,95,73,41,30.19,29.81,11,1,11,0.02
2012-2-22,65.8,50.8,32.2,44.6,38.7,30.0,97,67,34,29.85,29.50,11,1,11,0.07
2012-2-23,67.3,51.1,42.1,54.7,44.0,39.2,98,79,48,29.64,29.38,7,0,7,0.12
2012-2-24,69.6,49.5,34.2,64.1,43.0,28.8,98,80,43,29.86,29.39,24,3,24,0.51
2012-2-25,39.0,31.6,21.4,31.4,22.7,17.4,94,70,51,30.34,29.84,16,2,16,0.00
2012-2-26,61.7,34.2,16.5,34.3,22.6,14.8,95,69,26,30.43,30.24,5,0,5,0.00
2012-2-27,67.6,45.8,23.7,41.1,31.0,21.9,96,62,34,30.38,30.17,13,1,13,0.00
2012-2-28,72.3,44.5,23.9,39.3,27.5,21.9,94,58,19,30.43,30.10,6,0,6,0.00
2012-2-29,71.4,53.0,35.4,65.4,50.1,30.4,98,90,77,30.10,29.65,10,0,10,1.63
2012-3-1,64.6,52.7,34.7,56.3,40.3,33.3,95,66,40,29.89,29.66,17,2,17,0.00
2012-3-2,61.0,46.6,30.4,54.7,43.3,29.6,98,89,72,29.88,29.46,8,0,8,0.57
2012-3-3,58.8,48.2,31.6,55.1,33.8,23.4,98,61,29,29.78,29.53,16,2,16,0.02
2012-3-4,42.6,35.0,28.6,32.0,26.3,23.3,91,71,55,29.92,29.77,12,1,12,0.00
2012-3-5,41.0,32.1,23.5,33.9,27.4,20.3,96,83,65,30.45,29.83,9,1,9,0.06
2012-3-6,72.0,40.8,20.1,36.4,27.5,18.8,96,67,24,30.54,30.32,7,0,7,0.00
2012-3-7,75.7,52.7,26.6,46.2,36.6,25.6,97,61,27,30.44,30.21,11,1,11,0.00
2012-3-8,73.0,58.8,45.0,55.4,48.4,40.0,96,70,45,30.26,29.99,11,1,11,0.47
2012-3-9,57.4,43.9,30.0,42.8,31.3,21.2,97,64,36,30.41,30.16,16,2,16,0.00
2012-3-10,63.9,39.3,23.0,33.7,24.8,21.1,95,63,26,30.53,30.38,6,0,6,0.00
2012-3-11,79.0,49.3,25.5,43.1,32.8,23.9,95,62,23,30.44,30.25,8,0,8,0.00
2012-3-12,61.5,48.9,36.7,58.8,46.0,35.0,98,90,73,30.28,30.07,0,0,0,0.27
2012-3-13,81.3,61.1,49.6,62.9,54.2,48.1,98,81,45,30.12,30.01,12,1,12,0.02
2012-3-14,87.1,60.6,41.9,62.4,49.4,41.4,98,73,31,30.22,30.10,10,0,10,0.00
2012-3-15,69.6,53.5,42.1,63.2,49.4,41.6,98,88,60,30.25,30.10,8,0,8,0.04
2012-3-16,76.8,58.3,46.6,64.5,53.4,46.1,98,86,55,30.18,30.11,7,0,7,0.04
2012-3-17,84.9,59.7,46.0,66.1,54.9,45.5,98,86,47,30.21,30.11,7,0,7,0.10
2012-3-18,81.5,60.9,49.3,63.0,55.6,48.8,98,85,49,30.26,30.09,7,0,7,0.02
2012-3-19,62.6,58.1,54.3,57.8,56.9,53.2,98,96,84,30.17,30.10,7,0,7,0.73
2012-3-20,91.6,69.6,52.7,67.0,57.5,51.8,98,71,35,30.17,30.04,5,0,5,0.00
2012-3-21,91.2,66.4,49.3,64.8,56.7,48.8,98,76,35,30.19,30.04,0,0,0,0.00
2012-3-22,92.8,69.0,50.5,68.9,56.7,50.0,98,71,33,30.17,30.01,11,0,11,0.00
2012-3-23,91.4,67.9,48.4,67.2,57.7,47.9,98,74,39,30.06,29.84,8,0,8,0.06
2012-3-24,78.6,60.7,52.5,61.0,56.5,51.3,98,87,53,29.91,29.75,10,0,10,0.08
2012-3-25,73.0,60.9,51.6,61.0,55.0,51.1,98,82,61,29.91,29.76,10,1,10,0.00
2012-3-26,66.7,56.1,40.8,53.2,40.9,22.5,96,62,32,30.23,29.91,9,2,9,0.00
2012-3-27,75.4,49.5,27.0,35.1,27.0,21.7,84,47,17,30.32,30.04,7,0,7,0.00
2012-3-28,82.2,59.7,38.5,66.9,49.2,32.9,92,71,45,30.04,29.71,24,2,24,0.77
2012-3-29,72.3,55.8,40.8,52.9,43.9,38.5,98,68,37,30.00,29.85,10,1,10,0.00
2012-3-30,85.1,55.1,39.7,64.0,48.9,38.6,97,82,46,29.99,29.70,6,0,6,0.07
2012-3-31,68.5,57.9,49.6,58.8,52.0,44.8,98,81,60,29.89,29.73,9,1,9,0.00
2012-4-1,79.9,60.8,46.9,57.3,48.5,43.7,95,68,33,29.90,29.61,12,1,12,0.02
2012-4-2,77.7,59.4,41.7,57.6,45.5,36.1,97,65,27,29.95,29.64,8,1,8,0.10
2012-4-3,86.7,58.4,33.3,50.9,41.5,32.5,98,63,22,29.97,29.74,7,0,7,0.00
2012-4-4,82.0,62.3,49.8,63.1,52.5,44.3,95,72,47,29.82,29.67,13,0,13,0.00
2012-4-5,71.8,54.5,44.4,44.9,33.7,28.5,77,47,25,29.87,29.76,11,0,11,0.00
2012-4-6,68.2,50.5,32.4,42.6,31.6,24.9,91,52,25,30.15,29.87,9,1,9,0.00
2012-4-7,72.3,49.2,26.6,40.9,29.7,23.7,95,55,20,30.28,30.12,10,1,10,0.00
2012-4-8,72.3,53.2,33.3,41.9,34.4,27.5,86,54,28,30.15,29.95,14,1,14,0.00
2012-4-9,67.5,52.7,31.3,42.4,35.0,29.0,94,55,33,30.06,29.78,12,1,12,0.02
2012-4-10,63.1,51.4,39.7,36.6,30.6,24.7,87,48,26,29.97,29.80,17,2,17,0.08
2012-4-11,49.6,41.5,33.4,34.0,28.8,26.1,82,61,46,30.18,29.94,9,1,9,0.00
2012-4-12,68.4,45.2,25.3,42.1,32.2,24.2,96,66,32,30.29,30.13,9,0,9,0.00
2012-4-13,76.3,53.6,33.1,45.1,35.4,30.7,93,57,23,30.26,30.16,9,0,9,0.00
2012-4-14,80.8,54.9,33.8,55.2,44.2,32.1,97,72,34,30.23,30.05,10,0,10,0.04
2012-4-15,89.1,66.8,49.3,64.5,55.0,48.8,98,71,35,30.13,29.98,10,1,10,0.02
2012-4-16,89.4,69.8,47.5,66.1,55.7,46.7,98,66,38,30.13,29.97,12,2,12,0.00
2012-4-17,73.6,61.4,50.7,51.3,44.7,39.0,75,56,35,30.33,30.13,7,0,7,0.00
2012-4-18,58.3,53.3,49.8,54.8,49.9,43.4,97,88,74,30.23,30.08,5,0,5,0.18
2012-4-19,84.0,61.6,49.6,58.7,51.8,47.8,98,75,34,30.12,29.94,9,0,9,0.00
2012-4-20,87.1,63.9,43.3,61.4,52.0,42.5,98,71,37,29.99,29.74,10,1,10,0.00
2012-4-21,63.6,53.4,46.2,58.3,52.2,43.9,100,96,77,29.89,29.75,13,1,13,0.40
2012-4-22,46.2,43.9,40.4,44.0,41.0,37.2,94,90,82,29.88,29.71,11,2,13,0.02
2012-4-23,54.2,42.3,33.6,40.1,30.9,19.8,94,70,28,29.71,29.57,22,3,23,0.39
2012-4-24,61.2,45.4,27.8,35.2,25.2,16.3,95,53,18,29.79,29.64,24,3,25,0.00
2012-4-25,67.0,51.8,32.3,49.1,37.1,27.9,94,63,26,29.91,29.78,11,1,11,0.02
2012-4-26,65.7,56.9,49.5,61.3,53.9,48.1,97,90,74,29.91,29.63,17,1,17,0.01
2012-4-27,61.7,50.5,37.7,49.6,36.9,25.2,96,64,27,30.22,29.91,13,2,13,0.00
2012-4-28,67.5,49.5,37.5,53.0,43.2,31.5,95,80,51,30.25,30.03,10,1,15,0.30
2012-4-29,75.7,56.6,45.6,56.1,48.2,43.4,95,77,36,30.27,30.13,8,1,9,0.00
2012-4-30,87.7,66.0,44.0,63.8,53.2,42.8,97,69,32,30.18,29.92,15,2,16,0.00
2012-5-1,81.4,70.0,61.6,66.8,62.3,59.6,95,78,52,30.08,29.94,24,2,25,0.53
2012-5-2,87.5,73.3,59.2,68.6,63.2,58.1,97,74,41,30.09,29.99,12,2,16,1.35
2012-5-3,90.2,72.6,58.6,71.2,62.7,57.7,97,76,37,30.13,29.98,8,1,9,0.00
2012-5-4,78.7,67.9,60.6,68.7,63.9,59.3,97,88,65,30.13,29.91,10,1,10,0.47
2012-5-5,77.0,66.7,63.0,67.5,64.0,62.1,98,92,68,29.99,29.86,5,0,5,0.81
2012-5-6,81.0,67.9,60.6,69.0,63.6,59.3,98,87,57,30.05,29.92,10,1,10,0.01
2012-5-7,85.0,69.2,58.3,68.4,62.8,57.4,98,82,51,29.97,29.81,12,1,12,0.13
2012-5-8,74.6,65.0,60.4,67.9,62.8,59.2,97,93,77,29.88,29.77,10,1,11,0.95
2012-5-9,68.1,59.0,50.8,59.2,55.4,49.8,98,89,56,29.87,29.72,13,1,13,0.20
2012-5-10,65.6,54.1,41.9,50.4,45.0,34.8,98,75,34,30.05,29.78,16,2,16,0.00
2012-5-11,71.5,53.3,37.6,51.1,40.1,32.8,98,69,26,30.26,30.05,9,1,11,0.00
2012-5-12,78.2,57.5,38.4,56.8,46.9,37.6,97,73,35,30.34,30.19,10,1,10,0.00
2012-5-13,72.7,61.4,54.5,62.5,57.2,52.1,97,87,63,30.22,30.08,7,0,7,0.69
2012-5-14,70.8,62.3,58.5,64.4,60.0,57.6,97,92,77,30.08,29.94,8,0,9,0.52
2012-5-15,73.7,63.6,56.8,64.1,59.6,55.6,98,88,62,30.02,29.95,3,0,3,0.00
2012-5-16,81.7,65.4,52.2,63.7,56.2,50.9,98,77,36,30.01,29.90,8,1,9,0.00
2012-5-17,74.7,61.5,48.5,58.4,50.8,41.3,97,71,36,30.11,29.99,11,2,11,0.00
2012-5-18,83.0,63.7,44.1,62.8,53.2,43.3,97,73,36,30.14,30.02,8,1,9,0.00
2012-5-19,82.7,66.0,52.5,67.1,56.9,51.6,97,77,40,30.16,30.07,7,1,7,0.00
2012-5-20,85.3,68.3,52.7,63.6,56.7,50.3,97,72,35,30.20,30.02,10,1,10,0.00
2012-5-21,84.5,68.4,53.0,66.0,58.2,52.0,97,74,41,30.05,29.83,9,1,10,0.00
2012-5-22,73.3,64.3,55.1,64.7,60.0,54.2,98,87,70,29.91,29.85,7,1,8,0.00
2012-5-23,80.0,66.7,57.9,66.4,62.3,56.7,97,87,55,29.93,29.86,9,1,9,0.06
2012-5-24,82.8,69.6,58.8,70.9,63.2,57.9,97,82,54,29.99,29.91,7,1,8,0.00
2012-5-25,90.1,72.9,56.1,72.3,63.4,55.2,98,76,40,30.11,29.98,9,1,9,0.00
2012-5-26,91.0,74.7,60.7,75.4,67.2,59.8,98,80,46,30.16,30.04,6,1,6,0.00
2012-5-27,92.2,75.6,65.3,75.1,68.1,63.5,98,80,47,30.11,29.99,9,1,10,0.00
2012-5-28,91.3,75.5,60.6,75.1,66.6,59.8,98,77,42,30.05,29.88,7,1,7,0.00
2012-5-29,90.0,71.4,62.5,71.4,66.5,61.6,98,87,48,29.91,29.77,18,1,22,0.44
2012-5-30,85.1,71.9,61.3,69.2,63.9,56.6,98,79,40,29.85,29.75,13,1,13,0.01
2012-5-31,83.6,69.6,58.9,65.2,58.2,49.3,97,72,32,29.90,29.76,7,1,8,0.00
2012-6-1,71.3,64.3,58.4,68.0,60.6,52.8,94,88,77,29.83,29.58,22,1,22,0.56
2012-6-2,71.3,60.8,49.4,53.0,49.5,44.3,94,69,42,29.91,29.83,10,2,11,0.00
2012-6-3,78.0,61.1,45.1,58.3,51.6,44.3,97,75,37,29.92,29.79,12,1,12,0.00
2012-6-4,78.0,62.0,50.8,65.6,54.9,47.5,97,81,37,29.81,29.70,13,1,13,0.24
2012-6-5,71.5,59.7,50.1,57.7,51.9,47.3,97,78,46,29.92,29.80,9,1,9,0.00
2012-6-6,72.5,60.1,53.2,62.0,55.4,52.1,97,85,54,30.02,29.91,9,1,9,0.15
2012-6-7,78.7,63.0,50.8,60.5,53.7,49.1,97,75,42,30.10,30.00,6,1,18,0.00
2012-6-8,83.6,64.9,48.1,61.8,53.2,46.9,97,71,32,30.11,29.98,7,1,7,0.00
2012-6-9,85.0,66.4,49.4,64.8,56.0,48.6,97,74,33,30.08,29.99,7,1,7,0.00
2012-6-10,88.2,70.5,53.2,70.1,60.1,52.1,97,74,36,30.11,30.01,7,1,7,0.00
2012-6-11,82.5,69.8,59.2,72.9,65.8,58.1,97,88,62,30.07,29.92,8,0,8,0.07
2012-6-12,86.8,74.8,66.0,73.8,68.9,64.5,97,83,60,29.94,29.83,9,1,9,0.00
2012-6-13,79.2,67.7,49.6,64.5,55.5,43.4,97,70,29,30.09,29.92,8,2,17,0.00
2012-6-14,85.3,65.1,43.7,61.1,52.6,42.6,97,70,33,30.16,30.07,10,1,10,0.00
2012-6-15,87.8,69.4,51.6,66.0,57.4,50.5,97,71,36,30.22,30.12,9,1,9,0.00
2012-6-16,87.2,69.6,52.1,66.3,57.6,51.0,97,71,36,30.27,30.08,10,1,10,0.00
2012-6-17,84.6,70.1,55.7,68.8,61.9,54.3,96,77,54,30.11,29.94,16,1,16,0.16
2012-6-18,80.4,70.7,63.5,73.4,66.9,62.1,96,88,65,30.03,29.93,10,1,13,0.27
2012-6-19,91.3,77.1,65.4,74.1,67.8,64.2,96,76,45,30.13,30.02,8,1,9,0.00
2012-6-20,93.3,77.5,64.3,75.7,67.4,62.8,96,75,40,30.18,30.02,7,1,7,0.00
2012-6-21,93.0,77.7,65.0,74.5,68.8,63.6,96,76,47,30.06,29.86,11,1,12,0.00
2012-6-22,89.0,74.5,65.2,72.4,67.5,63.3,96,80,46,29.92,29.83,18,1,18,0.00
2012-6-23,86.2,73.2,62.0,69.2,62.7,54.6,96,74,36,30.03,29.92,11,1,11,0.00
2012-6-24,88.5,75.1,56.3,66.4,59.6,55.0,96,64,35,30.04,29.89,9,1,9,0.00
2012-6-25,82.1,69.2,56.0,65.7,56.6,45.3,96,68,37,29.94,29.81,13,1,13,0.00
2012-6-26,78.7,62.2,44.5,53.6,48.5,43.1,95,65,34,30.01,29.91,13,2,13,0.00
2012-6-27,86.0,66.1,45.3,60.5,52.1,44.0,96,67,31,30.07,29.94,7,1,11,0.00
2012-6-28,97.5,75.0,50.8,70.2,58.8,49.4,96,65,27,29.99,29.79,11,1,11,0.00
2012-6-29,100.7,82.2,65.8,74.5,68.6,63.7,95,68,39,29.86,29.71,9,2,10,0.00
2012-7-1,68.0,67.0,66.4,65.3,64.9,64.6,94,93,91,30.00,29.96,7,1,7,0.00
2012-7-2,90.3,75.2,62.8,71.1,66.1,61.3,95,77,43,30.04,29.95,5,1,10,0.00
2012-7-3,92.8,73.6,64.3,74.7,67.6,62.8,95,84,47,30.01,29.90,20,1,20,0.12
2012-7-4,95.5,79.1,65.6,77.2,69.2,64.1,95,75,43,29.98,29.85,8,1,8,0.00
2012-7-5,91.9,78.7,67.4,74.5,69.4,64.7,95,75,44,29.99,29.89,15,1,15,0.00
2012-7-6,96.0,80.6,66.0,76.9,70.0,64.2,95,73,45,30.01,29.90,8,1,8,0.00
2012-7-7,99.1,82.7,69.1,76.9,71.5,67.2,95,73,36,29.98,29.86,8,1,9,0.00
2012-7-8,99.0,80.3,68.8,76.1,71.3,67.3,95,77,41,29.92,29.81,18,1,18,0.03
2012-7-9,83.8,74.5,65.8,71.4,67.9,63.3,94,81,53,29.99,29.90,5,1,5,0.06
2012-7-10,89.0,75.4,63.1,69.0,61.0,53.9,94,67,31,30.03,29.94,13,1,14,0.00
2012-7-11,92.0,75.6,59.5,68.2,61.7,56.3,94,66,31,30.11,30.00,12,1,12,0.00
2012-7-12,90.3,75.4,60.9,67.3,59.4,50.1,94,64,26,30.15,30.07,9,1,9,0.00
2012-7-13,71.5,65.7,60.8,67.7,62.6,58.1,94,90,76,30.21,30.12,7,1,8,1.32
2012-7-14,92.5,77.4,65.7,74.8,68.0,63.9,95,75,45,30.16,30.05,10,1,10,0.04
2012-7-15,90.0,76.6,66.0,74.5,68.7,64.2,94,78,51,30.14,30.00,12,2,15,0.24
2012-7-16,92.5,77.3,67.2,75.3,69.5,65.3,94,79,48,30.07,29.89,9,1,10,0.00
2012-7-17,95.6,78.7,64.2,76.4,69.5,62.3,94,76,43,29.98,29.84,11,1,11,0.00
2012-7-18,95.0,76.4,68.8,78.9,70.7,65.2,94,84,50,30.00,29.84,26,1,27,0.00
2012-7-19,92.0,74.5,68.1,75.3,69.0,66.0,94,84,53,30.01,29.87,23,1,23,0.00
2012-7-20,76.7,71.5,67.9,72.6,69.2,65.8,94,92,86,29.93,29.86,6,0,6,0.00
2012-7-21,82.1,73.2,65.7,73.2,68.6,63.6,94,86,65,30.09,29.92,7,1,9,0.00
2012-7-22,88.8,74.5,64.5,71.2,65.9,62.5,94,77,46,30.16,30.07,7,1,7,0.00
2012-7-23,87.8,74.1,64.9,77.5,69.7,62.8,94,87,65,30.14,29.96,14,1,14,0.00
2012-7-24,86.9,75.8,69.3,76.7,70.7,66.3,94,85,59,29.97,29.83,19,2,23,0.00
2012-7-25,90.4,77.2,67.6,75.6,68.4,64.6,93,77,49,29.96,29.82,5,1,8,0.00
2012-7-26,95.2,80.2,68.6,77.0,70.9,66.3,94,76,49,29.87,29.68,21,2,25,0.00
2012-7-27,87.7,74.9,67.0,76.1,69.9,64.9,93,85,63,29.92,29.78,6,1,6,0.00
2012-7-28,84.5,72.1,65.4,70.6,66.4,63.3,94,83,58,30.03,29.87,7,1,7,0.00
2012-7-29,84.7,71.9,62.5,68.9,64.7,60.4,94,80,50,30.08,30.00,8,1,8,0.01
2012-7-30,86.8,71.3,61.8,74.9,66.3,59.7,94,85,58,30.04,29.92,12,1,12,0.28
2012-7-31,90.5,74.1,64.6,75.0,66.9,62.5,94,80,52,29.96,29.79,8,1,8,0.04
2012-8-1,88.5,74.2,63.3,76.0,67.8,61.2,94,82,55,29.91,29.80,6,1,7,0.00
2012-8-2,91.2,76.4,65.7,74.9,67.8,63.6,94,77,45,29.92,29.84,7,1,7,0.01
2012-8-3,92.3,76.5,66.3,78.7,68.9,64.2,94,79,49,30.02,29.88,11,1,11,0.00
2012-8-4,92.3,78.0,67.2,75.9,69.6,65.1,94,78,48,30.08,29.98,8,1,8,0.00
2012-8-5,86.3,74.4,67.1,76.1,70.0,65.0,94,87,64,30.12,30.00,11,1,15,1.31
2012-8-6,85.9,74.3,68.6,75.3,69.9,66.5,94,87,60,30.11,29.99,5,0,5,0.04
2012-8-7,88.5,75.6,65.6,73.5,67.6,60.3,94,79,41,30.02,29.93,8,1,8,0.00
2012-8-8,91.5,75.1,62.5,74.9,66.3,60.7,94,77,46,30.01,29.91,6,1,7,0.00
2012-8-9,91.1,77.1,67.6,76.8,70.0,65.5,94,80,50,29.96,29.75,18,1,19,0.51
2012-8-10,83.2,72.5,63.9,70.7,66.9,61.8,94,83,62,29.82,29.69,12,1,13,0.34
2012-8-11,76.8,65.6,56.3,62.6,59.2,54.6,94,81,56,30.00,29.81,10,1,11,0.01
2012-8-12,81.0,67.4,57.6,65.8,59.6,55.6,94,78,47,30.05,29.98,8,1,10,0.00
2012-8-13,85.3,69.3,57.7,67.8,60.7,55.9,94,77,40,30.06,29.92,5,1,8,0.00
2012-8-14,83.8,71.3,62.1,70.3,64.9,60.0,94,82,55,29.93,29.83,10,1,11,0.00
2012-8-15,79.3,69.2,60.5,69.2,64.6,58.7,94,86,64,30.00,29.88,7,1,7,0.00
2012-8-16,62.4,61.7,60.5,60.7,59.9,58.7,94,94,93,30.01,30.00,1,0,1,0.00
2012-8-17,64.7,64.6,64.4,62.6,62.5,62.4,94,93,93,29.93,29.92,0,0,0,0.00
2012-8-18,80.2,68.4,57.8,66.8,61.6,55.9,95,81,48,29.96,29.85,13,1,13,0.00
2012-8-19,82.3,65.2,57.6,67.3,60.6,55.7,95,86,53,29.92,29.83,8,0,8,0.43
2012-8-20,80.4,67.1,56.3,67.5,60.6,54.6,95,82,47,29.99,29.87,9,1,9,0.00
2012-8-21,83.8,66.5,54.3,64.5,57.2,49.8,95,76,34,30.10,29.99,7,1,7,0.00
2012-8-22,85.3,67.8,56.4,64.4,58.2,54.0,95,76,37,30.16,30.06,6,1,6,0.00
2012-8-23,88.0,69.1,56.9,70.0,60.9,55.1,94,79,38,30.17,30.07,7,1,7,0.00
2012-8-24,88.8,70.4,58.9,68.6,62.1,57.1,95,78,41,30.16,30.05,7,1,7,0.00
2012-8-25,85.8,69.3,58.6,69.5,61.5,56.6,95,79,40,30.18,30.09,10,1,10,0.00
2012-8-26,88.1,69.2,56.2,69.2,61.2,54.5,94,79,46,30.19,30.05,10,1,10,0.00
2012-8-27,92.8,74.0,59.5,71.5,63.7,57.7,94,75,39,30.12,29.93,9,1,9,0.00
2012-8-28,87.0,74.5,61.6,71.1,65.3,57.8,94,76,39,30.02,29.92,7,1,8,0.01
2012-8-29,85.2,68.6,57.6,66.4,59.5,55.0,95,77,37,30.05,29.96,9,1,13,0.00
2012-8-30,89.7,68.9,55.0,66.7,58.4,53.3,95,74,32,30.12,30.04,7,1,8,0.00
2012-8-31,93.8,73.1,55.8,73.7,64.9,53.9,94,78,45,30.19,30.04,9,1,9,0.00
2012-9-1,86.9,74.4,69.0,75.4,70.7,67.2,94,89,65,30.14,30.03,6,0,6,0.04
2012-9-2,93.6,78.5,69.8,75.8,70.9,68.0,94,80,47,30.04,29.85,8,1,8,0.06
2012-9-3,89.5,74.5,69.7,75.4,69.9,67.2,94,87,55,29.95,29.85,22,1,22,1.01
2012-9-4,87.5,74.6,69.3,75.2,70.7,67.5,95,89,58,29.93,29.81,7,1,7,0.23
2012-9-5,90.9,76.6,70.3,74.9,70.7,68.5,95,84,49,29.88,29.78,5,1,7,0.04
2012-9-6,90.0,76.5,67.1,74.3,69.7,65.3,95,81,47,29.94,29.82,8,1,8,0.00
2012-9-7,90.3,74.2,65.7,71.7,66.4,61.8,95,80,41,29.96,29.76,7,1,7,0.00
2012-9-8,75.7,65.5,54.2,68.1,62.3,52.5,94,90,73,29.92,29.64,18,1,20,0.66
2012-9-9,74.8,60.8,51.9,60.3,54.6,50.3,95,82,46,30.05,29.89,7,1,7,0.00
2012-9-10,73.7,60.5,47.7,56.5,50.2,41.6,95,74,36,30.23,30.05,13,1,13,0.00
2012-9-11,80.2,59.7,45.8,59.8,50.1,44.3,95,76,37,30.33,30.21,9,1,10,0.00
2012-9-12,84.3,64.3,50.8,64.0,55.5,49.1,95,78,40,30.34,30.23,8,1,8,0.00
2012-9-13,84.5,66.1,54.4,67.4,58.4,52.8,95,80,41,30.35,30.19,7,1,8,0.00
2012-9-14,84.0,65.6,55.3,64.4,58.2,53.8,95,80,38,30.26,30.13,10,1,10,0.00
2012-9-15,75.5,63.5,49.7,61.2,51.5,43.0,94,69,34,30.28,30.15,10,1,13,0.00
2012-9-16,76.7,57.3,46.8,56.4,49.5,44.3,95,80,33,30.18,30.05,6,0,6,0.00
2012-9-17,82.0,61.7,46.0,65.8,56.3,44.6,95,84,54,30.10,29.84,9,1,10,0.31
2012-9-18,67.3,63.6,57.1,64.6,61.5,55.5,95,93,88,29.92,29.59,14,1,15,1.75
2012-9-19,68.7,55.2,42.3,55.5,45.2,36.0,95,74,34,30.17,29.92,9,1,10,0.00
2012-9-20,79.5,57.1,41.9,60.3,49.6,40.5,95,80,40,30.15,29.98,7,1,11,0.00
2012-9-21,79.8,62.8,49.7,62.5,55.2,48.3,95,80,47,30.04,29.84,13,1,13,0.00
2012-9-22,75.3,66.4,52.0,61.4,54.3,35.4,95,66,39,30.11,29.82,24,3,24,0.00
2012-9-23,65.3,49.0,35.1,46.0,40.0,33.5,95,75,37,30.23,30.11,10,1,11,0.00
2012-9-24,67.5,50.6,39.6,46.6,41.0,35.5,95,75,32,30.32,30.13,8,1,8,0.00
2012-9-25,72.1,50.7,36.8,57.2,46.8,35.5,95,88,42,30.19,29.99,13,1,14,0.13
2012-9-26,81.0,64.7,53.8,68.2,59.7,52.3,95,85,54,30.17,30.07,13,1,14,0.38
2012-9-27,78.0,66.8,60.8,67.0,62.6,59.3,95,87,61,30.17,30.06,7,1,11,0.23
2012-9-28,66.7,62.7,56.6,63.6,60.7,55.1,95,93,86,30.10,30.01,5,0,5,0.33
2012-9-29,66.6,56.8,46.2,56.0,50.6,44.8,96,82,49,30.06,29.95,14,1,15,0.00
2012-9-30,71.7,54.9,45.2,57.1,49.6,43.8,96,84,49,29.98,29.83,13,1,13,0.00
2012-10-1,68.7,55.7,46.3,61.0,52.7,44.9,95,90,61,29.92,29.76,4,0,4,0.12
2012-10-2,85.3,67.2,56.8,73.4,63.4,55.3,95,89,58,29.89,29.72,9,1,9,0.85
2012-10-3,77.0,67.5,61.3,67.1,63.3,59.6,95,87,64,30.14,29.89,7,1,7,0.00
2012-10-4,76.8,64.6,52.6,62.0,57.7,51.2,95,81,45,30.24,30.13,13,1,13,0.00
2012-10-5,78.2,60.9,50.7,61.9,54.7,49.3,95,82,47,30.20,29.94,8,1,9,0.00
2012-10-6,60.7,51.4,40.7,57.1,47.4,39.3,95,87,56,30.13,29.87,14,1,15,0.09
2012-10-7,53.1,45.8,35.5,47.5,42.6,34.2,95,89,70,30.23,30.07,13,1,13,0.00
2012-10-8,46.6,41.9,37.7,43.8,40.2,36.4,95,94,88,30.30,30.21,4,0,4,0.32
2012-10-9,57.2,47.6,41.6,47.5,43.7,40.2,95,87,65,30.23,30.05,7,0,7,0.00
2012-10-10,61.2,48.9,38.5,51.2,44.1,36.1,95,85,60,30.24,29.99,14,2,15,0.00
2012-10-11,62.4,43.4,31.5,42.0,34.5,30.1,95,76,33,30.36,30.19,9,1,9,0.00
2012-10-12,61.4,44.6,32.7,44.7,37.8,31.4,95,80,49,30.42,30.24,11,1,11,0.00
2012-10-13,73.7,51.4,34.9,51.2,42.8,33.6,95,77,38,30.41,30.16,10,1,10,0.00
2012-10-14,79.8,61.1,44.0,58.9,51.4,42.6,95,74,43,30.17,29.82,14,1,14,0.00
2012-10-15,70.4,59.0,42.1,59.6,51.2,39.9,94,76,53,29.94,29.74,11,3,17,0.17
2012-10-16,63.9,47.2,38.4,46.0,40.7,36.8,95,81,40,30.04,29.90,11,1,12,0.00
2012-10-17,76.3,53.0,35.7,54.1,43.3,34.4,95,74,38,29.97,29.76,8,1,8,0.00
2012-10-18,73.3,56.5,47.5,56.4,48.5,43.9,95,77,45,29.83,29.60,26,2,27,0.46
2012-10-19,69.3,55.4,44.8,53.9,42.7,34.1,95,68,31,29.82,29.60,16,2,16,0.01
2012-10-20,56.3,49.8,42.8,45.4,42.3,38.1,95,77,53,30.01,29.77,11,1,12,0.02
2012-10-21,62.4,45.5,33.6,46.5,39.1,32.3,95,81,44,30.20,30.01,7,1,7,0.00
2012-10-22,77.6,52.3,34.7,54.5,44.2,33.4,95,79,41,30.26,30.12,9,0,9,0.00
2012-10-23,78.5,59.6,47.2,58.5,51.3,45.8,95,78,42,30.15,30.05,9,1,10,0.00
2012-10-24,79.7,60.6,49.9,60.2,51.9,48.4,95,77,37,30.19,30.06,8,0,8,0.00
2012-10-25,85.8,61.0,43.5,58.7,47.0,37.9,95,69,19,30.14,29.99,8,1,8,0.00
2012-10-26,79.2,61.1,46.0,59.8,51.8,44.5,95,75,41,30.11,29.93,6,0,6,0.00
2012-10-27,57.0,51.4,47.1,52.7,49.0,45.1,95,92,84,30.00,29.92,7,1,7,0.05
2012-10-28,47.6,45.8,43.0,45.5,43.9,40.4,94,93,91,29.98,29.83,8,1,8,0.35
2012-10-29,43.0,38.7,35.3,40.8,36.5,33.3,94,92,90,29.86,29.38,16,3,16,1.68
2012-10-30,35.2,32.8,32.0,33.3,31.2,30.4,94,94,93,29.38,29.30,16,4,16,0.01
2012-10-31,37.9,37.7,37.4,35.9,35.7,35.5,93,93,92,29.82,29.80,7,2,7,0.02
2012-11-1,45.6,37.7,34.0,40.9,35.7,32.7,95,93,82,29.89,29.80,9,1,9,0.18
2012-11-2,51.4,40.3,33.5,38.0,32.4,28.2,95,76,46,30.08,29.84,19,2,20,0.00
2012-11-3,47.4,40.4,35.7,37.1,32.8,29.0,94,75,56,30.19,30.07,9,1,9,0.03
2012-11-4,49.9,41.4,34.8,36.7,32.3,28.1,94,71,48,30.15,30.07,10,1,11,0.00
2012-11-5,46.8,34.7,25.5,32.0,28.0,24.0,94,79,49,30.20,30.13,14,1,14,0.00
2012-11-6,56.3,36.2,23.9,37.2,29.1,22.4,95,79,40,30.16,29.95,7,1,7,0.00
2012-11-7,47.9,34.8,25.6,37.3,29.7,24.3,95,83,54,30.08,29.92,7,0,7,0.00
2012-11-8,48.4,33.0,23.6,31.9,26.4,22.0,95,79,44,30.25,30.08,10,1,11,0.00
2012-11-9,58.2,36.5,22.6,38.2,29.6,21.0,95,80,40,30.36,30.23,7,0,7,0.00
2012-11-10,73.2,44.8,27.7,43.8,33.4,26.4,95,73,24,30.36,30.23,9,0,9,0.00
2012-11-11,76.8,53.8,30.1,47.5,35.9,28.8,95,61,19,30.43,30.24,12,1,12,0.00
2012-11-12,71.0,59.6,38.5,54.3,47.7,34.8,93,66,49,30.37,30.01,25,3,25,0.29
2012-11-13,44.0,34.6,24.8,37.0,27.4,23.1,94,77,48,30.55,30.36,13,1,14,0.00
2012-11-14,45.2,31.1,20.5,33.0,25.7,18.8,94,82,51,30.56,30.40,8,1,8,0.00
2012-11-15,52.6,34.5,22.1,34.0,27.6,20.6,95,79,43,30.40,30.30,7,0,7,0.00
2012-11-16,52.4,33.8,23.1,35.3,27.4,21.5,95,81,42,30.51,30.36,10,1,10,0.01
2012-11-17,58.7,33.5,21.3,34.6,27.1,19.8,95,81,34,30.59,30.49,8,0,8,0.00
2012-11-18,64.1,36.8,21.2,37.8,28.0,19.7,95,76,28,30.56,30.40,4,0,4,0.00
2012-11-19,58.8,37.0,22.5,35.2,28.5,21.0,95,76,33,30.45,30.23,4,0,4,0.00
2012-11-20,59.9,39.4,29.9,38.3,32.0,28.1,94,78,36,30.23,30.10,5,0,5,0.00
2012-11-21,61.0,38.5,25.5,37.3,28.8,23.3,95,74,24,30.26,30.16,8,0,8,0.00
2012-11-22,60.1,32.1,23.5,36.9,27.3,22.0,95,85,33,30.31,30.21,5,0,5,0.00
2012-11-24,32.2,30.1,28.8,25.4,23.8,22.3,87,77,68,30.20,30.13,11,2,11,0.00
2012-11-25,48.0,34.4,26.6,26.3,22.1,15.7,84,63,28,30.17,29.96,11,1,11,0.00
2012-11-26,55.7,39.8,25.4,39.3,29.8,23.1,93,71,34,30.23,30.07,8,1,8,0.00
2012-11-27,41.2,38.1,35.3,39.1,35.5,32.5,94,90,84,30.32,30.17,7,1,8,0.34
2012-11-28,42.5,33.2,22.8,33.2,28.4,21.1,94,84,57,30.46,30.30,11,1,12,0.00
2012-11-29,50.2,29.2,17.6,32.8,23.4,15.9,94,82,37,30.51,30.33,5,0,6,0.00
2012-11-30,59.3,35.8,22.9,40.0,29.6,21.4,95,81,38,30.40,30.24,8,0,10,0.01
2012-12-1,63.1,40.7,27.0,46.5,35.4,25.6,95,84,50,30.40,30.27,7,0,8,0.00
2012-12-2,64.6,45.9,31.4,53.5,42.4,30.1,95,89,54,30.30,30.13,12,0,13,0.32
2012-12-3,69.0,54.1,46.9,59.0,51.1,45.4,95,90,67,30.26,30.16,10,0,10,0.08
2012-12-4,69.0,51.9,38.3,57.8,48.6,37.0,95,89,61,30.22,30.05,13,1,13,0.09
2012-12-5,52.4,42.8,27.7,49.2,38.7,26.4,95,86,58,30.32,30.14,14,1,14,0.13
2012-12-6,56.7,37.1,22.0,43.4,33.2,20.8,95,87,55,30.32,30.08,3,0,3,0.01
2012-12-7,55.7,48.5,45.1,53.4,46.9,43.1,95,94,91,30.08,29.90,3,0,3,0.21
2012-12-8,61.9,53.7,46.9,56.4,51.2,45.5,95,92,77,30.02,29.87,6,1,6,0.35
2012-12-9,55.2,52.9,49.7,53.7,51.5,48.3,95,95,94,30.05,29.79,4,0,4,0.74
2012-12-10,60.5,51.7,37.1,54.8,49.2,34.8,95,91,80,29.87,29.57,18,2,21,0.74
2012-12-11,37.2,34.5,29.7,35.6,30.9,26.2,94,87,75,30.27,29.85,11,2,11,0.02
2012-12-12,40.3,30.1,23.9,30.9,26.7,22.6,95,88,63,30.46,30.27,8,1,8,0.00
2012-12-13,49.1,30.0,23.8,33.9,25.6,22.5,95,86,40,30.48,30.35,5,0,5,0.01
2012-12-14,53.5,31.5,19.4,38.5,26.1,17.9,95,84,34,30.42,30.27,6,0,7,0.00
2012-12-15,55.4,38.2,26.6,42.3,33.8,25.3,95,85,48,30.27,29.95,3,0,3,0.03
2012-12-16,60.1,49.7,41.5,53.1,46.4,39.6,95,89,74,29.95,29.74,8,1,8,0.01
2012-12-17,54.2,47.3,40.8,50.6,45.6,39.4,95,94,84,29.80,29.55,20,0,22,0.43
2012-12-18,46.9,41.0,31.2,44.1,37.7,29.4,96,88,79,29.91,29.59,18,2,18,0.02
2012-12-19,49.3,39.9,29.1,38.7,34.3,27.8,95,81,63,30.16,29.84,10,1,10,0.00
2012-12-20,52.4,41.2,28.5,43.3,36.0,27.2,96,83,51,30.12,29.44,19,3,19,0.57
2012-12-21,39.7,30.6,27.0,34.5,25.6,23.1,89,82,68,29.92,29.53,23,8,26,0.00
2012-12-22,30.5,27.2,16.0,26.5,22.5,14.3,94,82,72,30.22,29.92,16,4,18,0.00
2012-12-23,50.2,26.1,10.6,30.6,20.4,8.4,95,82,42,30.18,29.97,11,0,11,0.01
2012-12-24,38.3,29.9,21.7,37.0,28.6,20.4,95,95,94,30.05,29.80,3,0,3,0.26
2012-12-25,39.6,37.4,34.0,37.3,34.9,31.1,95,91,84,30.17,29.96,8,1,8,0.00
2012-12-26,49.2,39.6,33.6,41.9,36.2,30.8,95,88,63,30.09,29.47,19,2,19,1.05
2012-12-27,37.1,29.9,28.3,34.4,26.6,24.1,92,88,82,30.19,29.68,18,4,20,0.02
2012-12-28,35.7,31.8,29.4,30.3,28.3,26.4,91,87,78,30.20,29.91,8,1,9,0.01
2012-12-29,37.8,33.4,29.8,35.5,30.9,26.4,95,91,85,30.07,29.70,18,3,19,0.45
2012-12-30,30.4,25.7,16.6,27.7,21.9,14.7,94,86,77,30.48,30.07,21,3,22,0.00
2012-12-31,37.5,25.1,13.7,29.6,21.7,11.9,94,88,60,30.45,30.15,4,0,4,0.02
2013-1-1,34.4,32.5,31.1,32.9,30.9,28.8,95,94,83,30.17,30.01,11,1,12,0.16